sensor_id;sensor_type;location;lat;lon;timestamp;temperature;humidity
21734;DHT22;11029;47.820;10.534;2024-03-02T00:01:53;3.60;88.80
21734;DHT22;11029;47.820;10.534;2024-03-02T00:04:39;3.70;88.90
21734;DHT22;11029;47.820;10.534;2024-03-02T00:07:24;3.70;88.20
21734;DHT22;11029;47.820;10.534;2024-03-02T00:10:11;3.80;88.30
21734;DHT22;11029;47.820;10.534;2024-03-02T00:13:01;3.80;88.50
21734;DHT22;11029;47.820;10.534;2024-03-02T00:15:52;3.80;88.50
21734;DHT22;11029;47.820;10.534;2024-03-02T00:18:42;3.80;88.40
21734;DHT22;11029;47.820;10.534;2024-03-02T00:21:29;3.90;88.20
21734;DHT22;11029;47.820;10.534;2024-03-02T00:24:21;3.90;88.00
21734;DHT22;11029;47.820;10.534;2024-03-02T00:27:18;3.90;87.60
21734;DHT22;11029;47.820;10.534;2024-03-02T00:30:40;3.90;87.60
21734;DHT22;11029;47.820;10.534;2024-03-02T00:33:42;3.90;86.20
21734;DHT22;11029;47.820;10.534;2024-03-02T00:36:29;3.90;87.00
21734;DHT22;11029;47.820;10.534;2024-03-02T00:39:15;3.80;87.00
21734;DHT22;11029;47.820;10.534;2024-03-02T00:42:03;3.80;86.60
21734;DHT22;11029;47.820;10.534;2024-03-02T00:44:48;3.70;86.80
21734;DHT22;11029;47.820;10.534;2024-03-02T00:47:38;3.70;87.10
21734;DHT22;11029;47.820;10.534;2024-03-02T00:50:24;3.70;86.90
21734;DHT22;11029;47.820;10.534;2024-03-02T00:53:16;3.70;87.30
21734;DHT22;11029;47.820;10.534;2024-03-02T00:56:02;3.70;87.40
21734;DHT22;11029;47.820;10.534;2024-03-02T00:58:47;3.70;87.40
21734;DHT22;11029;47.820;10.534;2024-03-02T01:01:33;3.70;87.50
21734;DHT22;11029;47.820;10.534;2024-03-02T01:04:18;3.70;87.40
21734;DHT22;11029;47.820;10.534;2024-03-02T01:07:04;3.70;87.20
21734;DHT22;11029;47.820;10.534;2024-03-02T01:09:49;3.80;87.40
21734;DHT22;11029;47.820;10.534;2024-03-02T01:12:35;3.80;87.20
21734;DHT22;11029;47.820;10.534;2024-03-02T01:15:21;3.70;86.90
21734;DHT22;11029;47.820;10.534;2024-03-02T01:18:06;3.70;86.70
21734;DHT22;11029;47.820;10.534;2024-03-02T01:20:53;3.70;86.80
21734;DHT22;11029;47.820;10.534;2024-03-02T01:23:41;3.70;87.10
21734;DHT22;11029;47.820;10.534;2024-03-02T01:26:26;3.70;86.20
21734;DHT22;11029;47.820;10.534;2024-03-02T01:29:12;3.60;86.50
21734;DHT22;11029;47.820;10.534;2024-03-02T01:31:57;3.50;86.50
21734;DHT22;11029;47.820;10.534;2024-03-02T01:34:43;3.40;86.90
21734;DHT22;11029;47.820;10.534;2024-03-02T01:37:28;3.40;87.40
21734;DHT22;11029;47.820;10.534;2024-03-02T01:40:14;3.50;87.60
21734;DHT22;11029;47.820;10.534;2024-03-02T01:42:59;3.50;87.50
21734;DHT22;11029;47.820;10.534;2024-03-02T01:45:45;3.50;87.30
21734;DHT22;11029;47.820;10.534;2024-03-02T01:48:30;3.60;86.90
21734;DHT22;11029;47.820;10.534;2024-03-02T01:51:17;3.60;87.40
21734;DHT22;11029;47.820;10.534;2024-03-02T01:54:03;3.70;87.40
21734;DHT22;11029;47.820;10.534;2024-03-02T01:56:48;3.70;86.60
21734;DHT22;11029;47.820;10.534;2024-03-02T01:59:34;3.70;86.90
21734;DHT22;11029;47.820;10.534;2024-03-02T02:02:19;3.70;86.20
21734;DHT22;11029;47.820;10.534;2024-03-02T02:05:05;3.80;86.60
21734;DHT22;11029;47.820;10.534;2024-03-02T02:07:51;3.70;85.60
21734;DHT22;11029;47.820;10.534;2024-03-02T02:10:36;3.40;86.40
21734;DHT22;11029;47.820;10.534;2024-03-02T02:13:22;3.20;87.70
21734;DHT22;11029;47.820;10.534;2024-03-02T02:16:08;3.20;88.00
21734;DHT22;11029;47.820;10.534;2024-03-02T02:18:53;3.10;87.70
21734;DHT22;11029;47.820;10.534;2024-03-02T02:21:42;3.00;88.20
21734;DHT22;11029;47.820;10.534;2024-03-02T02:24:28;3.00;88.90
21734;DHT22;11029;47.820;10.534;2024-03-02T02:27:14;3.10;88.80
21734;DHT22;11029;47.820;10.534;2024-03-02T02:30:00;3.20;88.60
21734;DHT22;11029;47.820;10.534;2024-03-02T02:32:48;3.20;87.60
21734;DHT22;11029;47.820;10.534;2024-03-02T02:35:34;3.10;86.90
21734;DHT22;11029;47.820;10.534;2024-03-02T02:38:20;3.00;87.20
21734;DHT22;11029;47.820;10.534;2024-03-02T02:41:05;3.00;87.30
21734;DHT22;11029;47.820;10.534;2024-03-02T02:43:51;3.00;88.10
21734;DHT22;11029;47.820;10.534;2024-03-02T02:46:36;3.10;88.00
21734;DHT22;11029;47.820;10.534;2024-03-02T02:49:23;3.20;87.80
21734;DHT22;11029;47.820;10.534;2024-03-02T02:52:08;3.30;87.50
21734;DHT22;11029;47.820;10.534;2024-03-02T02:54:54;3.40;87.10
21734;DHT22;11029;47.820;10.534;2024-03-02T02:57:41;3.40;86.60
21734;DHT22;11029;47.820;10.534;2024-03-02T03:00:29;3.40;86.40
21734;DHT22;11029;47.820;10.534;2024-03-02T03:03:14;3.50;86.10
21734;DHT22;11029;47.820;10.534;2024-03-02T03:06:00;3.40;86.20
21734;DHT22;11029;47.820;10.534;2024-03-02T03:08:45;3.50;86.10
21734;DHT22;11029;47.820;10.534;2024-03-02T03:11:31;3.50;86.20
21734;DHT22;11029;47.820;10.534;2024-03-02T03:14:16;3.50;86.00
21734;DHT22;11029;47.820;10.534;2024-03-02T03:17:02;3.50;86.10
21734;DHT22;11029;47.820;10.534;2024-03-02T03:19:47;3.50;86.60
21734;DHT22;11029;47.820;10.534;2024-03-02T03:22:33;3.50;86.20
21734;DHT22;11029;47.820;10.534;2024-03-02T03:25:20;3.60;86.30
21734;DHT22;11029;47.820;10.534;2024-03-02T03:28:05;3.60;86.30
21734;DHT22;11029;47.820;10.534;2024-03-02T03:30:51;3.60;86.10
21734;DHT22;11029;47.820;10.534;2024-03-02T03:33:37;3.70;85.70
21734;DHT22;11029;47.820;10.534;2024-03-02T03:36:22;3.50;84.80
21734;DHT22;11029;47.820;10.534;2024-03-02T03:39:07;3.40;85.00
21734;DHT22;11029;47.820;10.534;2024-03-02T03:41:53;3.20;85.50
21734;DHT22;11029;47.820;10.534;2024-03-02T03:44:39;3.20;86.70
21734;DHT22;11029;47.820;10.534;2024-03-02T03:47:26;3.20;87.00
21734;DHT22;11029;47.820;10.534;2024-03-02T03:50:12;3.30;86.80
21734;DHT22;11029;47.820;10.534;2024-03-02T03:52:57;3.30;87.10
21734;DHT22;11029;47.820;10.534;2024-03-02T03:55:42;3.40;87.30
21734;DHT22;11029;47.820;10.534;2024-03-02T03:58:28;3.50;86.60
21734;DHT22;11029;47.820;10.534;2024-03-02T04:01:14;3.50;86.50
21734;DHT22;11029;47.820;10.534;2024-03-02T04:04:00;3.50;86.10
21734;DHT22;11029;47.820;10.534;2024-03-02T04:06:47;3.50;86.40
21734;DHT22;11029;47.820;10.534;2024-03-02T04:09:33;3.60;86.40
21734;DHT22;11029;47.820;10.534;2024-03-02T04:12:18;3.60;86.20
21734;DHT22;11029;47.820;10.534;2024-03-02T04:15:05;3.60;86.50
21734;DHT22;11029;47.820;10.534;2024-03-02T04:17:52;3.60;86.50
21734;DHT22;11029;47.820;10.534;2024-03-02T04:20:37;3.60;86.30
21734;DHT22;11029;47.820;10.534;2024-03-02T04:23:22;3.70;86.10
21734;DHT22;11029;47.820;10.534;2024-03-02T04:26:08;3.70;86.00
21734;DHT22;11029;47.820;10.534;2024-03-02T04:28:54;3.70;86.00
21734;DHT22;11029;47.820;10.534;2024-03-02T04:31:39;3.70;85.50
21734;DHT22;11029;47.820;10.534;2024-03-02T04:34:25;3.70;86.30
21734;DHT22;11029;47.820;10.534;2024-03-02T04:37:11;3.70;86.40
21734;DHT22;11029;47.820;10.534;2024-03-02T04:39:57;3.70;86.20
21734;DHT22;11029;47.820;10.534;2024-03-02T04:42:43;3.70;86.70
21734;DHT22;11029;47.820;10.534;2024-03-02T04:45:28;3.80;86.00
21734;DHT22;11029;47.820;10.534;2024-03-02T04:48:13;3.80;86.00
21734;DHT22;11029;47.820;10.534;2024-03-02T04:51:00;3.70;85.60
21734;DHT22;11029;47.820;10.534;2024-03-02T04:53:46;3.70;85.80
21734;DHT22;11029;47.820;10.534;2024-03-02T04:56:31;3.70;85.90
21734;DHT22;11029;47.820;10.534;2024-03-02T04:59:17;3.70;85.70
21734;DHT22;11029;47.820;10.534;2024-03-02T05:02:03;3.60;85.50
21734;DHT22;11029;47.820;10.534;2024-03-02T05:04:49;3.60;85.70
21734;DHT22;11029;47.820;10.534;2024-03-02T05:07:34;3.50;85.40
21734;DHT22;11029;47.820;10.534;2024-03-02T05:10:20;3.50;86.30
21734;DHT22;11029;47.820;10.534;2024-03-02T05:13:06;3.60;86.90
21734;DHT22;11029;47.820;10.534;2024-03-02T05:15:51;3.60;86.80
21734;DHT22;11029;47.820;10.534;2024-03-02T05:18:37;3.60;86.90
21734;DHT22;11029;47.820;10.534;2024-03-02T05:21:23;3.60;86.60
21734;DHT22;11029;47.820;10.534;2024-03-02T05:24:09;3.70;86.40
21734;DHT22;11029;47.820;10.534;2024-03-02T05:26:54;3.70;86.40
21734;DHT22;11029;47.820;10.534;2024-03-02T05:29:40;3.70;86.20
21734;DHT22;11029;47.820;10.534;2024-03-02T05:32:26;3.70;86.00
21734;DHT22;11029;47.820;10.534;2024-03-02T05:35:12;3.70;86.30
21734;DHT22;11029;47.820;10.534;2024-03-02T05:37:58;3.70;86.30
21734;DHT22;11029;47.820;10.534;2024-03-02T05:40:44;3.60;85.80
21734;DHT22;11029;47.820;10.534;2024-03-02T05:43:29;3.60;86.00
21734;DHT22;11029;47.820;10.534;2024-03-02T05:46:15;3.60;85.70
21734;DHT22;11029;47.820;10.534;2024-03-02T05:49:00;3.50;86.10
21734;DHT22;11029;47.820;10.534;2024-03-02T05:51:46;3.50;86.10
21734;DHT22;11029;47.820;10.534;2024-03-02T05:54:32;3.40;86.10
21734;DHT22;11029;47.820;10.534;2024-03-02T05:57:18;3.30;86.20
21734;DHT22;11029;47.820;10.534;2024-03-02T06:00:22;3.30;86.60
21734;DHT22;11029;47.820;10.534;2024-03-02T06:03:08;3.30;86.40
21734;DHT22;11029;47.820;10.534;2024-03-02T06:05:55;3.30;86.50
21734;DHT22;11029;47.820;10.534;2024-03-02T06:08:41;3.30;86.40
21734;DHT22;11029;47.820;10.534;2024-03-02T06:11:26;3.40;86.40
21734;DHT22;11029;47.820;10.534;2024-03-02T06:14:12;3.50;86.50
21734;DHT22;11029;47.820;10.534;2024-03-02T06:16:58;3.50;86.50
21734;DHT22;11029;47.820;10.534;2024-03-02T06:19:45;3.60;86.30
21734;DHT22;11029;47.820;10.534;2024-03-02T06:22:30;3.70;86.20
21734;DHT22;11029;47.820;10.534;2024-03-02T06:25:16;3.70;86.40
21734;DHT22;11029;47.820;10.534;2024-03-02T06:28:02;3.80;85.70
21734;DHT22;11029;47.820;10.534;2024-03-02T06:30:49;3.80;85.10
21734;DHT22;11029;47.820;10.534;2024-03-02T06:33:36;3.80;85.60
21734;DHT22;11029;47.820;10.534;2024-03-02T06:36:21;3.90;85.30
21734;DHT22;11029;47.820;10.534;2024-03-02T06:39:08;3.90;85.70
21734;DHT22;11029;47.820;10.534;2024-03-02T06:41:54;4.00;85.60
21734;DHT22;11029;47.820;10.534;2024-03-02T06:44:39;4.10;84.80
21734;DHT22;11029;47.820;10.534;2024-03-02T06:47:25;4.10;84.70
21734;DHT22;11029;47.820;10.534;2024-03-02T06:50:11;4.20;85.00
21734;DHT22;11029;47.820;10.534;2024-03-02T06:52:56;4.20;85.00
21734;DHT22;11029;47.820;10.534;2024-03-02T06:55:42;4.30;84.80
21734;DHT22;11029;47.820;10.534;2024-03-02T06:58:27;4.40;84.80
21734;DHT22;11029;47.820;10.534;2024-03-02T07:01:13;4.40;84.20
21734;DHT22;11029;47.820;10.534;2024-03-02T07:03:58;4.50;83.90
21734;DHT22;11029;47.820;10.534;2024-03-02T07:06:44;4.50;84.00
21734;DHT22;11029;47.820;10.534;2024-03-02T07:09:30;4.50;84.00
21734;DHT22;11029;47.820;10.534;2024-03-02T07:12:15;4.50;84.30
21734;DHT22;11029;47.820;10.534;2024-03-02T07:15:01;4.60;84.50
21734;DHT22;11029;47.820;10.534;2024-03-02T07:17:47;4.60;84.40
21734;DHT22;11029;47.820;10.534;2024-03-02T07:20:33;4.70;84.70
21734;DHT22;11029;47.820;10.534;2024-03-02T07:23:19;4.90;84.70
21734;DHT22;11029;47.820;10.534;2024-03-02T07:26:05;5.10;84.20
21734;DHT22;11029;47.820;10.534;2024-03-02T07:28:54;5.30;83.70
21734;DHT22;11029;47.820;10.534;2024-03-02T07:31:39;5.40;83.20
21734;DHT22;11029;47.820;10.534;2024-03-02T07:34:25;5.50;82.60
21734;DHT22;11029;47.820;10.534;2024-03-02T07:37:11;5.70;82.30
21734;DHT22;11029;47.820;10.534;2024-03-02T07:39:56;5.70;81.70
21734;DHT22;11029;47.820;10.534;2024-03-02T07:42:42;5.80;81.50
21734;DHT22;11029;47.820;10.534;2024-03-02T07:45:27;5.90;80.20
21734;DHT22;11029;47.820;10.534;2024-03-02T07:48:13;5.60;80.10
21734;DHT22;11029;47.820;10.534;2024-03-02T07:50:59;5.40;80.90
21734;DHT22;11029;47.820;10.534;2024-03-02T07:53:47;5.50;81.80
21734;DHT22;11029;47.820;10.534;2024-03-02T07:56:32;5.80;81.70
21734;DHT22;11029;47.820;10.534;2024-03-02T07:59:18;6.00;81.30
21734;DHT22;11029;47.820;10.534;2024-03-02T08:02:04;6.10;80.40
21734;DHT22;11029;47.820;10.534;2024-03-02T08:04:49;6.20;79.40
21734;DHT22;11029;47.820;10.534;2024-03-02T08:07:35;6.40;78.70
21734;DHT22;11029;47.820;10.534;2024-03-02T08:10:21;6.40;80.00
21734;DHT22;11029;47.820;10.534;2024-03-02T08:13:06;6.60;79.30
21734;DHT22;11029;47.820;10.534;2024-03-02T08:15:51;6.70;77.30
21734;DHT22;11029;47.820;10.534;2024-03-02T08:18:36;6.90;77.20
21734;DHT22;11029;47.820;10.534;2024-03-02T08:21:22;7.00;76.70
21734;DHT22;11029;47.820;10.534;2024-03-02T08:24:08;7.10;77.70
21734;DHT22;11029;47.820;10.534;2024-03-02T08:26:53;7.10;76.90
21734;DHT22;11029;47.820;10.534;2024-03-02T08:29:39;7.50;76.90
21734;DHT22;11029;47.820;10.534;2024-03-02T08:32:24;7.70;76.20
21734;DHT22;11029;47.820;10.534;2024-03-02T08:35:09;8.00;75.60
21734;DHT22;11029;47.820;10.534;2024-03-02T08:37:55;8.30;74.30
21734;DHT22;11029;47.820;10.534;2024-03-02T08:40:41;8.50;73.50
21734;DHT22;11029;47.820;10.534;2024-03-02T08:43:27;8.60;73.30
21734;DHT22;11029;47.820;10.534;2024-03-02T08:46:12;8.90;73.10
21734;DHT22;11029;47.820;10.534;2024-03-02T08:48:57;9.00;72.50
21734;DHT22;11029;47.820;10.534;2024-03-02T08:51:43;9.20;71.20
21734;DHT22;11029;47.820;10.534;2024-03-02T08:54:30;9.30;71.50
21734;DHT22;11029;47.820;10.534;2024-03-02T08:57:16;9.40;70.40
21734;DHT22;11029;47.820;10.534;2024-03-02T09:00:02;9.40;70.70
21734;DHT22;11029;47.820;10.534;2024-03-02T09:02:48;9.40;71.00
21734;DHT22;11029;47.820;10.534;2024-03-02T09:05:34;9.50;69.30
21734;DHT22;11029;47.820;10.534;2024-03-02T09:08:20;9.60;70.40
21734;DHT22;11029;47.820;10.534;2024-03-02T09:11:06;9.70;69.30
21734;DHT22;11029;47.820;10.534;2024-03-02T09:13:52;9.70;69.40
21734;DHT22;11029;47.820;10.534;2024-03-02T09:16:38;9.80;69.30
21734;DHT22;11029;47.820;10.534;2024-03-02T09:19:24;9.80;67.60
21734;DHT22;11029;47.820;10.534;2024-03-02T09:22:09;9.80;68.00
21734;DHT22;11029;47.820;10.534;2024-03-02T09:24:55;9.70;68.70
21734;DHT22;11029;47.820;10.534;2024-03-02T09:27:41;9.70;68.60
21734;DHT22;11029;47.820;10.534;2024-03-02T09:30:27;9.70;69.10
21734;DHT22;11029;47.820;10.534;2024-03-02T09:33:13;9.50;69.10
21734;DHT22;11029;47.820;10.534;2024-03-02T09:36:01;9.50;69.50
21734;DHT22;11029;47.820;10.534;2024-03-02T09:38:46;9.30;70.90
21734;DHT22;11029;47.820;10.534;2024-03-02T09:41:33;8.90;72.20
21734;DHT22;11029;47.820;10.534;2024-03-02T09:44:19;8.90;72.60
21734;DHT22;11029;47.820;10.534;2024-03-02T09:47:06;8.70;70.10
21734;DHT22;11029;47.820;10.534;2024-03-02T09:49:52;8.90;70.30
21734;DHT22;11029;47.820;10.534;2024-03-02T09:52:39;9.20;69.40
21734;DHT22;11029;47.820;10.534;2024-03-02T09:55:25;9.50;68.60
21734;DHT22;11029;47.820;10.534;2024-03-02T09:58:11;9.70;68.20
21734;DHT22;11029;47.820;10.534;2024-03-02T10:00:57;9.70;68.80
21734;DHT22;11029;47.820;10.534;2024-03-02T10:03:44;9.90;69.20
21734;DHT22;11029;47.820;10.534;2024-03-02T10:06:35;10.10;68.10
21734;DHT22;11029;47.820;10.534;2024-03-02T10:09:27;10.30;67.40
21734;DHT22;11029;47.820;10.534;2024-03-02T10:12:18;10.20;67.90
21734;DHT22;11029;47.820;10.534;2024-03-02T10:15:04;10.30;67.80
21734;DHT22;11029;47.820;10.534;2024-03-02T10:17:51;10.30;67.40
21734;DHT22;11029;47.820;10.534;2024-03-02T10:20:36;10.30;67.50
21734;DHT22;11029;47.820;10.534;2024-03-02T10:23:22;10.40;66.60
21734;DHT22;11029;47.820;10.534;2024-03-02T10:26:17;10.40;66.10
21734;DHT22;11029;47.820;10.534;2024-03-02T10:29:04;10.50;65.70
21734;DHT22;11029;47.820;10.534;2024-03-02T10:31:49;10.60;64.70
21734;DHT22;11029;47.820;10.534;2024-03-02T10:34:35;10.60;64.60
21734;DHT22;11029;47.820;10.534;2024-03-02T10:37:21;10.70;64.40
21734;DHT22;11029;47.820;10.534;2024-03-02T10:40:07;10.80;64.10
21734;DHT22;11029;47.820;10.534;2024-03-02T10:42:56;10.80;62.60
21734;DHT22;11029;47.820;10.534;2024-03-02T10:45:42;11.00;59.90
21734;DHT22;11029;47.820;10.534;2024-03-02T10:48:30;11.00;60.10
21734;DHT22;11029;47.820;10.534;2024-03-02T10:51:16;11.00;60.70
21734;DHT22;11029;47.820;10.534;2024-03-02T10:54:02;11.00;59.80
21734;DHT22;11029;47.820;10.534;2024-03-02T10:56:48;11.10;58.40
21734;DHT22;11029;47.820;10.534;2024-03-02T10:59:35;11.00;59.10
21734;DHT22;11029;47.820;10.534;2024-03-02T11:02:24;10.90;59.40
21734;DHT22;11029;47.820;10.534;2024-03-02T11:05:11;10.90;59.70
21734;DHT22;11029;47.820;10.534;2024-03-02T11:08:01;11.00;58.70
21734;DHT22;11029;47.820;10.534;2024-03-02T11:10:52;11.00;57.30
21734;DHT22;11029;47.820;10.534;2024-03-02T11:13:49;11.00;57.20
21734;DHT22;11029;47.820;10.534;2024-03-02T11:16:37;11.10;57.30
21734;DHT22;11029;47.820;10.534;2024-03-02T11:19:24;11.10;58.00
21734;DHT22;11029;47.820;10.534;2024-03-02T11:22:11;11.30;57.30
21734;DHT22;11029;47.820;10.534;2024-03-02T11:24:57;11.40;57.70
21734;DHT22;11029;47.820;10.534;2024-03-02T11:33:25;11.80;58.40
21734;DHT22;11029;47.820;10.534;2024-03-02T11:36:13;11.90;58.20
21734;DHT22;11029;47.820;10.534;2024-03-02T11:38:58;12.20;58.40
21734;DHT22;11029;47.820;10.534;2024-03-02T11:41:43;12.30;58.50
21734;DHT22;11029;47.820;10.534;2024-03-02T11:44:34;12.50;57.40
21734;DHT22;11029;47.820;10.534;2024-03-02T11:47:20;12.60;58.10
21734;DHT22;11029;47.820;10.534;2024-03-02T11:50:05;12.90;56.80
21734;DHT22;11029;47.820;10.534;2024-03-02T11:52:52;13.00;56.50
21734;DHT22;11029;47.820;10.534;2024-03-02T11:55:38;13.20;56.30
21734;DHT22;11029;47.820;10.534;2024-03-02T11:58:33;13.40;56.20
21734;DHT22;11029;47.820;10.534;2024-03-02T12:01:42;13.60;56.10
21734;DHT22;11029;47.820;10.534;2024-03-02T12:04:29;13.80;56.50
21734;DHT22;11029;47.820;10.534;2024-03-02T12:07:20;13.90;55.60
21734;DHT22;11029;47.820;10.534;2024-03-02T12:10:08;14.10;55.60
21734;DHT22;11029;47.820;10.534;2024-03-02T12:13:06;14.10;54.20
21734;DHT22;11029;47.820;10.534;2024-03-02T12:15:54;14.10;53.50
21734;DHT22;11029;47.820;10.534;2024-03-02T12:18:42;14.20;51.20
21734;DHT22;11029;47.820;10.534;2024-03-02T12:21:29;14.20;51.60
21734;DHT22;11029;47.820;10.534;2024-03-02T12:24:14;14.50;50.00
21734;DHT22;11029;47.820;10.534;2024-03-02T12:27:00;14.50;49.50
21734;DHT22;11029;47.820;10.534;2024-03-02T12:29:46;14.50;49.20
21734;DHT22;11029;47.820;10.534;2024-03-02T12:32:33;14.40;50.20
21734;DHT22;11029;47.820;10.534;2024-03-02T12:35:19;14.40;50.10
21734;DHT22;11029;47.820;10.534;2024-03-02T12:38:06;14.40;49.60
21734;DHT22;11029;47.820;10.534;2024-03-02T12:40:52;14.40;49.40
21734;DHT22;11029;47.820;10.534;2024-03-02T12:43:38;14.50;50.90
21734;DHT22;11029;47.820;10.534;2024-03-02T12:46:24;14.60;49.50
21734;DHT22;11029;47.820;10.534;2024-03-02T12:49:14;14.50;50.00
21734;DHT22;11029;47.820;10.534;2024-03-02T12:52:06;14.60;51.10
21734;DHT22;11029;47.820;10.534;2024-03-02T12:54:51;14.70;50.70
21734;DHT22;11029;47.820;10.534;2024-03-02T12:57:39;14.90;49.70
21734;DHT22;11029;47.820;10.534;2024-03-02T13:00:29;14.80;50.10
21734;DHT22;11029;47.820;10.534;2024-03-02T13:03:21;15.00;48.50
21734;DHT22;11029;47.820;10.534;2024-03-02T13:06:08;15.10;48.00
21734;DHT22;11029;47.820;10.534;2024-03-02T13:08:55;15.10;47.10
21734;DHT22;11029;47.820;10.534;2024-03-02T13:11:41;14.70;48.50
21734;DHT22;11029;47.820;10.534;2024-03-02T13:14:27;14.70;49.10
21734;DHT22;11029;47.820;10.534;2024-03-02T13:17:12;14.70;49.00
21734;DHT22;11029;47.820;10.534;2024-03-02T13:19:59;14.70;48.20
21734;DHT22;11029;47.820;10.534;2024-03-02T13:22:45;14.80;48.90
21734;DHT22;11029;47.820;10.534;2024-03-02T13:25:31;15.00;48.60
21734;DHT22;11029;47.820;10.534;2024-03-02T13:28:18;15.10;48.30
21734;DHT22;11029;47.820;10.534;2024-03-02T13:31:03;15.20;49.00
21734;DHT22;11029;47.820;10.534;2024-03-02T13:33:50;15.30;47.70
21734;DHT22;11029;47.820;10.534;2024-03-02T13:36:36;15.40;48.90
21734;DHT22;11029;47.820;10.534;2024-03-02T13:39:21;15.40;48.50
21734;DHT22;11029;47.820;10.534;2024-03-02T13:42:11;15.60;47.60
21734;DHT22;11029;47.820;10.534;2024-03-02T13:44:59;15.50;48.00
21734;DHT22;11029;47.820;10.534;2024-03-02T13:47:45;15.50;48.80
21734;DHT22;11029;47.820;10.534;2024-03-02T13:50:30;15.60;48.20
21734;DHT22;11029;47.820;10.534;2024-03-02T13:53:16;15.80;48.20
21734;DHT22;11029;47.820;10.534;2024-03-02T13:56:02;16.00;47.80
21734;DHT22;11029;47.820;10.534;2024-03-02T13:58:48;16.00;48.30
21734;DHT22;11029;47.820;10.534;2024-03-02T14:01:34;16.20;47.50
21734;DHT22;11029;47.820;10.534;2024-03-02T14:04:20;16.10;47.40
21734;DHT22;11029;47.820;10.534;2024-03-02T14:07:06;16.00;48.50
21734;DHT22;11029;47.820;10.534;2024-03-02T14:09:56;16.10;48.20
21734;DHT22;11029;47.820;10.534;2024-03-02T14:12:43;16.40;47.50
21734;DHT22;11029;47.820;10.534;2024-03-02T14:15:28;16.50;47.50
21734;DHT22;11029;47.820;10.534;2024-03-02T14:18:15;17.00;46.30
21734;DHT22;11029;47.820;10.534;2024-03-02T14:21:01;17.20;45.60
21734;DHT22;11029;47.820;10.534;2024-03-02T14:23:48;17.40;45.60
21734;DHT22;11029;47.820;10.534;2024-03-02T14:26:34;17.70;44.60
21734;DHT22;11029;47.820;10.534;2024-03-02T14:29:20;17.90;44.40
21734;DHT22;11029;47.820;10.534;2024-03-02T14:32:06;18.30;44.10
21734;DHT22;11029;47.820;10.534;2024-03-02T14:34:52;19.00;43.50
21734;DHT22;11029;47.820;10.534;2024-03-02T14:37:38;19.20;42.60
21734;DHT22;11029;47.820;10.534;2024-03-02T14:40:23;19.30;42.40
21734;DHT22;11029;47.820;10.534;2024-03-02T14:43:12;19.40;42.30
21734;DHT22;11029;47.820;10.534;2024-03-02T14:45:58;20.10;42.00
21734;DHT22;11029;47.820;10.534;2024-03-02T14:48:45;21.80;39.20
21734;DHT22;11029;47.820;10.534;2024-03-02T14:51:31;23.50;37.00
21734;DHT22;11029;47.820;10.534;2024-03-02T14:54:17;24.90;34.90
21734;DHT22;11029;47.820;10.534;2024-03-02T14:57:02;26.10;33.10
21734;DHT22;11029;47.820;10.534;2024-03-02T14:59:48;26.30;32.50
21734;DHT22;11029;47.820;10.534;2024-03-02T15:02:34;26.40;31.90
21734;DHT22;11029;47.820;10.534;2024-03-02T15:05:19;26.00;32.50
21734;DHT22;11029;47.820;10.534;2024-03-02T15:08:06;26.40;32.20
21734;DHT22;11029;47.820;10.534;2024-03-02T15:10:52;26.90;31.70
21734;DHT22;11029;47.820;10.534;2024-03-02T15:13:41;26.60;32.00
21734;DHT22;11029;47.820;10.534;2024-03-02T15:16:27;27.20;31.50
21734;DHT22;11029;47.820;10.534;2024-03-02T15:19:14;27.10;31.20
21734;DHT22;11029;47.820;10.534;2024-03-02T15:21:59;26.10;32.20
21734;DHT22;11029;47.820;10.534;2024-03-02T15:24:45;24.70;33.70
21734;DHT22;11029;47.820;10.534;2024-03-02T15:27:30;22.60;36.40
21734;DHT22;11029;47.820;10.534;2024-03-02T15:30:16;21.10;38.70
21734;DHT22;11029;47.820;10.534;2024-03-02T15:33:02;19.50;40.80
21734;DHT22;11029;47.820;10.534;2024-03-02T15:35:48;18.20;43.30
21734;DHT22;11029;47.820;10.534;2024-03-02T15:38:33;17.10;45.90
21734;DHT22;11029;47.820;10.534;2024-03-02T15:41:26;16.50;47.50
21734;DHT22;11029;47.820;10.534;2024-03-02T15:44:12;16.40;48.30
21734;DHT22;11029;47.820;10.534;2024-03-02T15:46:58;15.80;49.30
21734;DHT22;11029;47.820;10.534;2024-03-02T15:49:44;15.40;50.40
21734;DHT22;11029;47.820;10.534;2024-03-02T15:52:30;15.40;51.00
21734;DHT22;11029;47.820;10.534;2024-03-02T15:55:15;15.60;50.40
21734;DHT22;11029;47.820;10.534;2024-03-02T15:58:02;15.60;50.10
21734;DHT22;11029;47.820;10.534;2024-03-02T16:00:50;15.40;50.40
21734;DHT22;11029;47.820;10.534;2024-03-02T16:03:36;14.90;50.90
21734;DHT22;11029;47.820;10.534;2024-03-02T16:06:23;14.50;52.10
21734;DHT22;11029;47.820;10.534;2024-03-02T16:09:08;14.20;52.90
21734;DHT22;11029;47.820;10.534;2024-03-02T16:11:56;14.00;53.60
21734;DHT22;11029;47.820;10.534;2024-03-02T16:14:41;13.70;54.60
21734;DHT22;11029;47.820;10.534;2024-03-02T16:17:27;13.40;54.60
21734;DHT22;11029;47.820;10.534;2024-03-02T16:20:12;13.10;55.70
21734;DHT22;11029;47.820;10.534;2024-03-02T16:22:57;12.80;56.50
21734;DHT22;11029;47.820;10.534;2024-03-02T16:25:43;12.70;57.00
21734;DHT22;11029;47.820;10.534;2024-03-02T16:28:29;12.60;57.10
21734;DHT22;11029;47.820;10.534;2024-03-02T16:31:15;12.40;57.90
21734;DHT22;11029;47.820;10.534;2024-03-02T16:34:03;12.20;58.50
21734;DHT22;11029;47.820;10.534;2024-03-02T16:36:49;12.20;58.60
21734;DHT22;11029;47.820;10.534;2024-03-02T16:39:34;12.20;58.60
21734;DHT22;11029;47.820;10.534;2024-03-02T16:42:20;12.00;59.20
21734;DHT22;11029;47.820;10.534;2024-03-02T16:45:06;11.80;59.80
21734;DHT22;11029;47.820;10.534;2024-03-02T16:47:52;11.70;59.90
21734;DHT22;11029;47.820;10.534;2024-03-02T16:50:37;11.60;60.30
21734;DHT22;11029;47.820;10.534;2024-03-02T16:53:23;11.40;60.50
21734;DHT22;11029;47.820;10.534;2024-03-02T16:56:09;11.40;60.40
21734;DHT22;11029;47.820;10.534;2024-03-02T16:58:54;11.30;60.50
21734;DHT22;11029;47.820;10.534;2024-03-02T17:01:40;11.20;60.80
21734;DHT22;11029;47.820;10.534;2024-03-02T17:04:25;11.10;60.90
21734;DHT22;11029;47.820;10.534;2024-03-02T17:07:12;11.00;61.10
21734;DHT22;11029;47.820;10.534;2024-03-02T17:09:59;10.80;61.50
21734;DHT22;11029;47.820;10.534;2024-03-02T17:12:45;10.70;62.10
21734;DHT22;11029;47.820;10.534;2024-03-02T17:15:30;10.60;62.30
21734;DHT22;11029;47.820;10.534;2024-03-02T17:18:15;10.50;62.70
21734;DHT22;11029;47.820;10.534;2024-03-02T17:21:01;10.40;63.10
21734;DHT22;11029;47.820;10.534;2024-03-02T17:23:47;10.30;63.40
21734;DHT22;11029;47.820;10.534;2024-03-02T17:26:32;10.20;63.60
21734;DHT22;11029;47.820;10.534;2024-03-02T17:29:18;10.20;64.10
21734;DHT22;11029;47.820;10.534;2024-03-02T17:32:04;10.10;64.20